Time;durP1;ratioP1;P1;durP2;ratioP2;P2;SDS_P1;SDS_P2;PMS_P1;PMS_P2;Temp;Humidity;BMP_temperature;BMP_pressure;BME280_temperature;BME280_humidity;BME280_pressure;Samples;Min_cycle;Max_cycle;Signal;HPM_P1;HPM_P2
2023/11/29 00:01:12;;;;;;;9.30;7.33;;;7.00;55.50;;;;;;5041646;28;20188;-48
2023/11/29 00:03:37;;;;;;;7.50;6.80;;;7.00;55.70;;;;;;5041319;28;21265;-49
2023/11/29 00:06:03;;;;;;;15.47;6.83;;;7.00;55.90;;;;;;5040004;28;20212;-50
2023/11/29 00:08:29;;;;;;;8.80;7.07;;;7.00;55.90;;;;;;5041362;28;20188;-48
2023/11/29 00:10:55;;;;;;;7.70;6.90;;;7.00;56.10;;;;;;5043399;28;20188;-47
2023/11/29 00:13:20;;;;;;;8.43;6.90;;;6.90;56.10;;;;;;5042278;28;20434;-49
2023/11/29 00:15:47;;;;;;;9.20;6.97;;;6.90;56.20;;;;;;5042859;28;20189;-47
2023/11/29 00:18:13;;;;;;;8.67;7.13;;;7.00;56.00;;;;;;5037973;28;20181;-53
2023/11/29 00:20:39;;;;;;;7.77;6.60;;;7.00;55.70;;;;;;5041253;28;20420;-51
2023/11/29 00:23:04;;;;;;;7.73;6.93;;;7.00;55.70;;;;;;5043999;28;20992;-51
2023/11/29 00:25:30;;;;;;;10.27;7.07;;;7.00;55.80;;;;;;5038856;28;20674;-51
2023/11/29 00:27:55;;;;;;;8.47;7.40;;;7.00;55.70;;;;;;5043004;28;20283;-49
2023/11/29 00:30:21;;;;;;;10.00;7.40;;;7.00;55.60;;;;;;5044126;28;20215;-48
2023/11/29 00:32:46;;;;;;;8.20;7.37;;;7.00;55.50;;;;;;5042079;28;20185;-50
2023/11/29 00:35:12;;;;;;;7.10;6.40;;;7.00;56.40;;;;;;5046239;28;20188;-48
2023/11/29 00:37:37;;;;;;;7.87;7.00;;;7.00;55.80;;;;;;5043893;28;20185;-50
2023/11/29 00:40:03;;;;;;;8.03;6.17;;;7.00;55.40;;;;;;5043128;28;20196;-49
2023/11/29 00:42:29;;;;;;;8.10;7.13;;;6.90;55.20;;;;;;5044441;28;20188;-49
2023/11/29 00:44:54;;;;;;;7.67;6.87;;;6.90;55.10;;;;;;5051038;28;20814;-51
2023/11/29 00:47:20;;;;;;;7.03;6.40;;;6.90;55.00;;;;;;5045039;28;20657;-50
2023/11/29 00:49:45;;;;;;;7.37;6.67;;;6.90;54.80;;;;;;5046557;28;20197;-47
2023/11/29 00:52:11;;;;;;;7.80;6.10;;;7.00;54.90;;;;;;5041402;28;20181;-50
2023/11/29 00:54:37;;;;;;;6.00;5.30;;;6.90;54.50;;;;;;5045259;28;20203;-49
2023/11/29 00:57:02;;;;;;;10.30;5.83;;;6.90;54.30;;;;;;5048091;28;20247;-50
2023/11/29 00:59:28;;;;;;;6.47;5.87;;;6.90;53.90;;;;;;5046282;28;20212;-53
2023/11/29 01:01:53;;;;;;;6.47;5.87;;;6.90;53.80;;;;;;5046986;28;20187;-48
2023/11/29 01:04:19;;;;;;;6.50;5.90;;;6.90;53.80;;;;;;5038228;28;20211;-51
2023/11/29 01:06:44;;;;;;;6.17;5.67;;;6.90;53.60;;;;;;5046787;28;20319;-52
2023/11/29 01:09:10;;;;;;;5.90;4.73;;;7.00;53.50;;;;;;5043293;28;20239;-49
2023/11/29 01:11:36;;;;;;;6.37;5.67;;;7.00;53.40;;;;;;5044459;28;20188;-49
2023/11/29 01:14:01;;;;;;;12.00;5.97;;;7.00;53.10;;;;;;5042381;28;20184;-50
2023/11/29 01:16:27;;;;;;;5.97;5.37;;;7.00;53.00;;;;;;5042386;28;20680;-50
2023/11/29 01:18:52;;;;;;;7.10;6.40;;;7.00;52.80;;;;;;5044208;28;20211;-50
2023/11/29 01:21:18;;;;;;;6.80;5.80;;;7.00;54.10;;;;;;5045064;28;20264;-50
2023/11/29 01:23:43;;;;;;;7.47;6.67;;;7.00;53.90;;;;;;5047406;28;20268;-46
2023/11/29 01:26:09;;;;;;;6.80;6.20;;;6.90;53.90;;;;;;5047051;28;20730;-47
2023/11/29 01:28:35;;;;;;;7.17;6.47;;;6.90;54.10;;;;;;5043763;28;20232;-51
2023/11/29 01:31:07;;;;;;;8.60;6.70;;;7.00;54.60;;;;;;5046296;28;20237;-49
2023/11/29 01:33:33;;;;;;;7.53;6.60;;;6.90;54.80;;;;;;5047030;28;20427;-49
2023/11/29 01:36:09;;;;;;;7.73;6.93;;;6.90;54.90;;;;;;5045589;28;20431;-49
2023/11/29 01:38:34;;;;;;;6.50;5.87;;;6.90;55.00;;;;;;5045951;28;20806;-49
2023/11/29 01:41:00;;;;;;;7.03;6.30;;;6.90;55.10;;;;;;5045939;28;20442;-46
2023/11/29 01:43:26;;;;;;;7.20;6.20;;;6.80;55.10;;;;;;5046046;28;20267;-50
2023/11/29 01:45:51;;;;;;;7.70;6.20;;;6.80;55.10;;;;;;5044007;28;20251;-50
2023/11/29 01:48:18;;;;;;;9.10;7.77;;;6.80;55.20;;;;;;5044521;28;20189;-49
2023/11/29 01:50:45;;;;;;;7.00;6.30;;;6.90;55.50;;;;;;5045228;28;20684;-49
2023/11/29 01:53:15;;;;;;;7.70;6.90;;;6.80;55.80;;;;;;5046555;28;20985;-50
2023/11/29 01:55:42;;;;;;;7.60;6.80;;;6.80;56.00;;;;;;5037990;28;20809;-50
2023/11/29 01:58:07;;;;;;;9.17;7.23;;;6.90;56.10;;;;;;5045187;28;20457;-49
2023/11/29 02:00:33;;;;;;;8.37;7.40;;;6.90;56.10;;;;;;5048913;28;20959;-50
2023/11/29 02:02:59;;;;;;;9.67;7.70;;;6.90;56.10;;;;;;5044602;28;20660;-48
2023/11/29 02:05:24;;;;;;;7.67;6.90;;;6.90;56.20;;;;;;5044944;28;20579;-47
2023/11/29 02:07:50;;;;;;;8.73;7.87;;;6.90;56.50;;;;;;5045101;28;20209;-48
2023/11/29 02:10:16;;;;;;;8.80;7.50;;;6.80;56.30;;;;;;5049081;28;20253;-49
2023/11/29 02:12:42;;;;;;;9.10;7.33;;;6.80;56.50;;;;;;5041349;28;20771;-49
2023/11/29 02:15:08;;;;;;;9.03;7.80;;;6.80;56.60;;;;;;5051450;28;20193;-49
2023/11/29 02:17:34;;;;;;;8.60;7.70;;;6.60;56.60;;;;;;5037956;28;20452;-48
2023/11/29 02:20:00;;;;;;;9.40;8.30;;;6.50;56.90;;;;;;5044833;28;20545;-51
2023/11/29 02:22:27;;;;;;;9.40;7.67;;;6.60;57.00;;;;;;5042971;28;20268;-51
2023/11/29 02:24:53;;;;;;;9.10;7.93;;;6.70;56.90;;;;;;5042989;28;20240;-49
2023/11/29 02:27:20;;;;;;;9.50;7.30;;;6.60;56.30;;;;;;5039175;28;20440;-48
2023/11/29 02:29:45;;;;;;;10.23;7.93;;;6.40;56.50;;;;;;5043921;28;20212;-49
2023/11/29 02:32:11;;;;;;;9.27;7.07;;;6.40;56.80;;;;;;5042818;28;20456;-50
2023/11/29 02:34:37;;;;;;;7.97;7.17;;;6.50;57.00;;;;;;5047399;28;20212;-47
2023/11/29 02:37:03;;;;;;;11.57;9.00;;;6.50;56.90;;;;;;5044071;28;20195;-52
2023/11/29 02:39:29;;;;;;;10.07;7.77;;;6.50;56.70;;;;;;5045530;28;20206;-47
2023/11/29 02:41:55;;;;;;;9.50;7.80;;;6.30;56.60;;;;;;5045494;28;20431;-50
2023/11/29 02:44:20;;;;;;;13.63;8.00;;;6.30;56.90;;;;;;5045593;28;20192;-50
2023/11/29 02:46:46;;;;;;;9.50;7.90;;;6.40;56.90;;;;;;5047905;28;20446;-49
2023/11/29 02:49:12;;;;;;;9.57;8.30;;;6.50;56.90;;;;;;5043568;28;20204;-49
2023/11/29 02:51:37;;;;;;;10.40;7.70;;;6.40;56.80;;;;;;5043180;28;20186;-49
2023/11/29 02:54:03;;;;;;;10.57;7.77;;;6.50;56.80;;;;;;5044749;28;20300;-52
2023/11/29 02:56:28;;;;;;;11.20;8.53;;;6.60;56.70;;;;;;5040254;28;20240;-48
2023/11/29 02:58:54;;;;;;;9.50;7.30;;;6.50;56.20;;;;;;5043066;28;20205;-50
2023/11/29 03:01:19;;;;;;;10.80;7.50;;;6.50;56.30;;;;;;5044249;28;20221;-50
2023/11/29 03:03:45;;;;;;;10.00;8.23;;;6.60;56.80;;;;;;5042035;28;20682;-47
2023/11/29 03:06:10;;;;;;;11.00;8.80;;;6.60;56.30;;;;;;5045742;28;20753;-49
2023/11/29 03:08:36;;;;;;;8.87;7.57;;;6.50;56.20;;;;;;5044524;28;20301;-49
2023/11/29 03:11:02;;;;;;;9.57;7.93;;;6.50;56.20;;;;;;5041654;28;20526;-49
2023/11/29 03:13:28;;;;;;;12.57;8.83;;;6.50;56.20;;;;;;5042168;28;20181;-49
2023/11/29 03:15:54;;;;;;;14.43;11.33;;;6.50;56.20;;;;;;5038718;28;20187;-49
2023/11/29 03:18:20;;;;;;;10.57;8.87;;;6.50;56.30;;;;;;5044486;28;20438;-50
2023/11/29 03:20:45;;;;;;;11.47;8.70;;;6.50;56.30;;;;;;5041515;28;20796;-50
2023/11/29 03:23:11;;;;;;;10.50;8.50;;;6.50;56.40;;;;;;5045293;28;20181;-53
2023/11/29 03:25:37;;;;;;;12.03;9.03;;;6.50;56.40;;;;;;5039571;28;20221;-49
2023/11/29 03:28:03;;;;;;;11.50;8.10;;;6.30;56.60;;;;;;5045095;28;20876;-54
2023/11/29 03:30:28;;;;;;;11.57;8.00;;;6.20;56.70;;;;;;5044294;28;20209;-52
2023/11/29 03:32:54;;;;;;;11.10;9.57;;;6.00;57.40;;;;;;5044358;28;20652;-47
2023/11/29 03:35:19;;;;;;;9.37;8.37;;;6.10;57.50;;;;;;5044950;28;20621;-49
2023/11/29 03:37:45;;;;;;;9.90;8.50;;;6.10;57.60;;;;;;5043707;28;20200;-50
2023/11/29 03:40:11;;;;;;;11.27;8.77;;;6.10;57.90;;;;;;5043560;28;20205;-52
2023/11/29 03:42:36;;;;;;;9.90;8.43;;;6.20;58.10;;;;;;5042684;28;20223;-50
2023/11/29 03:45:02;;;;;;;9.33;7.83;;;6.20;58.20;;;;;;5044613;28;20503;-49
2023/11/29 03:47:28;;;;;;;9.03;7.60;;;6.20;57.90;;;;;;5044453;28;20262;-51
2023/11/29 03:49:54;;;;;;;11.20;8.87;;;6.10;58.50;;;;;;5041134;28;20819;-53
2023/11/29 03:52:19;;;;;;;11.50;8.83;;;5.90;58.70;;;;;;5039804;28;20188;-46
2023/11/29 03:54:45;;;;;;;11.30;8.80;;;5.90;59.20;;;;;;5042055;28;20253;-49
2023/11/29 03:57:11;;;;;;;10.23;8.13;;;5.90;59.50;;;;;;5043753;28;20496;-48
2023/11/29 03:59:36;;;;;;;9.53;7.40;;;5.80;59.40;;;;;;5041828;28;20232;-51
2023/11/29 04:02:02;;;;;;;10.50;7.80;;;5.40;59.80;;;;;;5042652;28;20604;-47
2023/11/29 04:04:28;;;;;;;10.97;8.17;;;5.50;60.40;;;;;;5043392;28;20188;-49
2023/11/29 04:06:53;;;;;;;10.17;8.00;;;5.70;60.00;;;;;;5046075;28;20192;-50
2023/11/29 04:09:19;;;;;;;9.20;7.67;;;5.80;59.50;;;;;;5046615;28;20795;-50
2023/11/29 04:11:46;;;;;;;10.43;7.73;;;5.90;59.30;;;;;;5047949;28;20644;-50
2023/11/29 04:14:11;;;;;;;8.53;6.93;;;6.00;59.00;;;;;;5047301;28;20991;-48
2023/11/29 04:16:39;;;;;;;11.40;8.13;;;5.90;58.80;;;;;;5047718;28;20438;-51
2023/11/29 04:19:05;;;;;;;10.20;8.30;;;6.00;58.90;;;;;;5047149;28;20205;-49
2023/11/29 04:21:33;;;;;;;9.63;7.80;;;6.10;58.70;;;;;;5046767;28;20892;-50
2023/11/29 04:23:59;;;;;;;9.80;7.50;;;6.10;58.40;;;;;;5048029;28;20199;-50
2023/11/29 04:26:33;;;;;;;9.50;7.33;;;6.00;58.40;;;;;;5047153;28;20482;-52
2023/11/29 04:29:01;;;;;;;11.30;8.63;;;6.00;58.50;;;;;;5043195;28;20496;-48
2023/11/29 04:31:30;;;;;;;11.03;8.00;;;6.00;58.40;;;;;;5047991;28;20787;-50
2023/11/29 04:33:55;;;;;;;12.00;8.00;;;5.90;58.30;;;;;;5045160;28;20435;-49
2023/11/29 04:36:21;;;;;;;10.93;7.77;;;5.90;58.10;;;;;;5048622;28;20466;-48
2023/11/29 04:38:48;;;;;;;10.30;8.13;;;6.00;58.20;;;;;;5046365;28;20298;-49
2023/11/29 04:41:17;;;;;;;10.80;8.47;;;5.90;58.00;;;;;;5044508;28;20276;-49
2023/11/29 04:43:43;;;;;;;9.33;7.83;;;6.00;58.00;;;;;;5045764;28;20443;-48
2023/11/29 04:46:09;;;;;;;9.33;7.47;;;6.10;58.00;;;;;;5046514;28;20520;-48
2023/11/29 04:48:35;;;;;;;9.97;7.83;;;6.10;57.90;;;;;;5047743;28;20482;-47
2023/11/29 04:51:01;;;;;;;9.63;7.50;;;6.10;57.80;;;;;;5044171;28;20546;-46
2023/11/29 04:53:28;;;;;;;9.73;7.37;;;6.10;58.00;;;;;;5043175;28;20464;-49
2023/11/29 04:55:55;;;;;;;8.27;7.20;;;6.00;58.00;;;;;;5044860;28;20441;-48
2023/11/29 04:58:22;;;;;;;9.07;7.43;;;6.10;58.10;;;;;;5041568;28;20447;-48
2023/11/29 05:00:47;;;;;;;9.20;7.77;;;6.00;57.80;;;;;;5044070;28;20431;-47
2023/11/29 05:03:14;;;;;;;8.50;6.70;;;5.90;58.00;;;;;;5039993;28;20509;-49
2023/11/29 05:05:40;;;;;;;10.00;7.53;;;5.90;58.10;;;;;;5043716;28;20223;-51
2023/11/29 05:08:05;;;;;;;8.20;7.07;;;5.80;58.10;;;;;;5043780;28;20439;-48
2023/11/29 05:10:31;;;;;;;9.20;6.10;;;5.70;58.00;;;;;;5046764;28;20212;-52
2023/11/29 05:12:56;;;;;;;10.57;7.00;;;5.60;58.10;;;;;;5047126;28;20189;-50
2023/11/29 05:15:22;;;;;;;10.70;6.10;;;5.70;58.20;;;;;;5045255;28;20735;-48
2023/11/29 05:17:47;;;;;;;8.50;6.47;;;5.50;57.40;;;;;;5039611;28;20241;-50
2023/11/29 05:20:13;;;;;;;8.43;6.20;;;5.60;57.70;;;;;;5048128;28;20209;-51
2023/11/29 05:22:39;;;;;;;8.37;6.70;;;5.80;58.30;;;;;;5038009;28;20196;-48
2023/11/29 05:25:05;;;;;;;7.27;5.93;;;5.90;57.40;;;;;;5047768;28;20228;-48
2023/11/29 05:27:31;;;;;;;7.00;5.67;;;6.10;57.00;;;;;;5044123;28;20428;-50
2023/11/29 05:29:56;;;;;;;10.23;7.37;;;6.10;57.00;;;;;;5042405;28;20204;-49
2023/11/29 05:32:22;;;;;;;10.00;6.40;;;6.20;56.80;;;;;;5041426;28;20660;-50
2023/11/29 05:34:47;;;;;;;8.00;6.47;;;6.30;56.60;;;;;;5037478;28;20554;-50
2023/11/29 05:37:13;;;;;;;10.20;7.27;;;6.30;56.20;;;;;;5041051;28;20591;-47
2023/11/29 05:39:38;;;;;;;9.47;6.30;;;6.10;56.20;;;;;;5047777;28;20337;-50
2023/11/29 05:42:05;;;;;;;7.00;6.27;;;6.20;56.60;;;;;;5044210;28;20223;-53
2023/11/29 05:44:31;;;;;;;8.20;6.23;;;6.20;56.80;;;;;;5045888;28;20185;-47
2023/11/29 05:46:58;;;;;;;10.43;6.70;;;6.20;56.70;;;;;;5039843;28;20435;-48
2023/11/29 05:49:23;;;;;;;7.87;6.70;;;6.00;57.00;;;;;;5046839;28;20461;-50
2023/11/29 05:51:49;;;;;;;7.33;6.07;;;5.90;57.50;;;;;;5042927;28;20439;-48
2023/11/29 05:54:15;;;;;;;10.20;7.50;;;6.00;57.60;;;;;;5004184;28;1172665;-49
2023/11/29 05:56:40;;;;;;;10.60;8.20;;;5.80;57.40;;;;;;5047094;28;20203;-50
2023/11/29 05:59:06;;;;;;;9.60;7.80;;;5.60;58.20;;;;;;5046066;28;20745;-50
2023/11/29 06:01:32;;;;;;;7.93;7.10;;;5.50;58.30;;;;;;5045879;28;20968;-47
2023/11/29 06:03:57;;;;;;;12.17;7.60;;;5.50;58.70;;;;;;5046258;28;20247;-51
2023/11/29 06:06:23;;;;;;;11.77;7.50;;;5.60;58.40;;;;;;5042686;28;20483;-49
2023/11/29 06:08:48;;;;;;;8.70;6.67;;;5.50;58.40;;;;;;5043984;28;20324;-47
2023/11/29 06:11:14;;;;;;;9.40;6.40;;;5.50;58.70;;;;;;5044601;28;20228;-51
2023/11/29 06:13:41;;;;;;;12.63;10.07;;;5.60;58.60;;;;;;5043630;28;20739;-51
2023/11/29 06:16:07;;;;;;;7.87;5.97;;;5.60;58.40;;;;;;5046352;28;20242;-48
2023/11/29 06:18:33;;;;;;;8.03;6.00;;;5.80;58.20;;;;;;5045796;28;20462;-52
2023/11/29 06:20:59;;;;;;;9.00;6.70;;;5.60;57.80;;;;;;5044131;28;20423;-48
2023/11/29 06:23:25;;;;;;;7.20;5.50;;;5.50;58.20;;;;;;5042624;28;20188;-51
2023/11/29 06:25:51;;;;;;;9.93;5.60;;;5.50;58.40;;;;;;5047332;28;20961;-50
2023/11/29 06:28:17;;;;;;;7.97;6.50;;;5.70;59.40;;;;;;5043872;28;20492;-48
2023/11/29 06:30:43;;;;;;;9.03;6.60;;;5.90;59.70;;;;;;5045738;28;20279;-51
2023/11/29 06:33:08;;;;;;;8.33;7.03;;;6.10;59.60;;;;;;5043741;28;20271;-52
2023/11/29 06:35:34;;;;;;;8.93;5.90;;;6.30;58.50;;;;;;5045088;28;20609;-49
2023/11/29 06:37:59;;;;;;;8.60;6.53;;;6.50;57.80;;;;;;5045989;28;20656;-53
2023/11/29 06:40:25;;;;;;;8.20;6.10;;;6.40;56.90;;;;;;5037542;28;20227;-52
2023/11/29 06:42:51;;;;;;;10.23;6.93;;;6.50;56.60;;;;;;5043835;28;20184;-50
2023/11/29 06:45:19;;;;;;;9.57;6.73;;;6.70;56.30;;;;;;5041644;28;20364;-50
2023/11/29 06:47:47;;;;;;;9.63;6.73;;;6.60;55.90;;;;;;5042827;28;20272;-50
2023/11/29 06:50:14;;;;;;;9.03;6.30;;;6.60;56.10;;;;;;5040971;28;20458;-52
2023/11/29 06:52:40;;;;;;;8.40;6.30;;;6.60;56.00;;;;;;5044073;28;20478;-51
2023/11/29 06:55:06;;;;;;;8.03;6.37;;;6.70;55.90;;;;;;5043301;28;20470;-50
2023/11/29 06:57:33;;;;;;;10.03;8.33;;;6.80;56.00;;;;;;5043886;28;20472;-47
2023/11/29 06:59:58;;;;;;;6.57;5.90;;;6.80;55.90;;;;;;5046823;28;20439;-49
2023/11/29 07:02:24;;;;;;;9.70;7.50;;;6.70;55.80;;;;;;5044204;28;20434;-49
2023/11/29 07:04:50;;;;;;;8.20;6.90;;;6.80;55.90;;;;;;5045067;28;20213;-49
2023/11/29 07:07:16;;;;;;;7.33;6.37;;;6.80;56.00;;;;;;5046281;28;20565;-49
2023/11/29 07:09:42;;;;;;;7.83;6.40;;;6.90;55.90;;;;;;5045586;28;20204;-49
2023/11/29 07:12:11;;;;;;;10.03;7.00;;;6.90;55.90;;;;;;5040352;28;20537;-50
2023/11/29 07:14:36;;;;;;;10.00;7.50;;;6.80;55.90;;;;;;5040753;28;20629;-52
2023/11/29 07:17:04;;;;;;;8.70;6.40;;;6.50;56.30;;;;;;5046299;28;20427;-50
2023/11/29 07:19:30;;;;;;;8.60;7.33;;;6.50;57.00;;;;;;5046031;28;20204;-47
2023/11/29 07:21:55;;;;;;;8.00;6.70;;;6.30;56.90;;;;;;5044677;28;20415;-52
2023/11/29 07:24:21;;;;;;;9.30;7.00;;;6.20;57.10;;;;;;5041882;28;20202;-53
2023/11/29 07:26:46;;;;;;;11.03;8.40;;;6.00;57.60;;;;;;5041457;28;20710;-48
2023/11/29 07:29:12;;;;;;;11.17;7.40;;;6.00;58.10;;;;;;5043740;28;20228;-48
2023/11/29 07:31:37;;;;;;;11.10;8.53;;;5.70;58.80;;;;;;5040859;28;20185;-49
2023/11/29 07:34:03;;;;;;;10.50;7.97;;;5.70;58.90;;;;;;5039387;28;20177;-53
2023/11/29 07:36:29;;;;;;;11.67;7.70;;;5.70;58.90;;;;;;5041770;28;20211;-51
2023/11/29 07:38:55;;;;;;;8.40;7.20;;;5.80;58.90;;;;;;5043144;28;20990;-49
2023/11/29 07:41:22;;;;;;;8.70;6.43;;;5.80;58.90;;;;;;5043903;28;20193;-46
2023/11/29 07:43:47;;;;;;;8.53;7.63;;;5.90;58.70;;;;;;5045583;28;20235;-50
2023/11/29 07:46:13;;;;;;;8.67;6.67;;;6.10;58.40;;;;;;5045815;28;20506;-51
2023/11/29 07:48:39;;;;;;;9.80;7.63;;;6.10;57.90;;;;;;5037627;28;20207;-47
2023/11/29 07:51:06;;;;;;;8.10;7.00;;;5.70;58.80;;;;;;5041455;28;20439;-47
2023/11/29 07:53:31;;;;;;;8.97;7.37;;;5.70;59.20;;;;;;5044333;28;20532;-50
2023/11/29 07:55:57;;;;;;;9.90;7.10;;;5.70;59.30;;;;;;5038062;28;20467;-48
2023/11/29 07:58:22;;;;;;;8.70;6.77;;;5.80;58.70;;;;;;5039783;28;20177;-49
2023/11/29 08:00:48;;;;;;;8.80;6.03;;;6.00;58.50;;;;;;5046904;28;20701;-53
2023/11/29 08:03:14;;;;;;;7.73;6.13;;;5.80;58.60;;;;;;5045567;28;20272;-49
2023/11/29 08:05:41;;;;;;;8.13;6.43;;;5.80;59.00;;;;;;5046888;28;20219;-50
2023/11/29 08:08:07;;;;;;;10.77;6.30;;;6.00;58.90;;;;;;5040079;28;20435;-50
2023/11/29 08:10:33;;;;;;;10.07;7.20;;;6.20;58.40;;;;;;5044470;28;20969;-48
2023/11/29 08:12:58;;;;;;;7.67;6.33;;;6.40;58.10;;;;;;5038585;28;20525;-50
2023/11/29 08:15:26;;;;;;;12.10;6.33;;;6.50;57.80;;;;;;5042810;28;20184;-49
2023/11/29 08:17:51;;;;;;;12.23;7.50;;;6.60;57.40;;;;;;5040603;28;20884;-49
2023/11/29 08:20:17;;;;;;;8.60;6.27;;;6.60;57.00;;;;;;5045455;28;20446;-47
2023/11/29 08:22:44;;;;;;;7.37;6.40;;;6.80;56.90;;;;;;5040809;28;20195;-49
2023/11/29 08:25:10;;;;;;;10.53;6.03;;;6.90;56.70;;;;;;5041969;28;20223;-49
2023/11/29 08:27:35;;;;;;;7.33;6.17;;;7.00;56.50;;;;;;5037189;28;20431;-49
2023/11/29 08:30:01;;;;;;;7.00;5.70;;;7.10;56.40;;;;;;5039942;28;20939;-49
2023/11/29 08:32:27;;;;;;;8.77;6.27;;;7.10;56.40;;;;;;5042197;28;20200;-50
2023/11/29 08:34:53;;;;;;;8.90;6.60;;;6.90;56.10;;;;;;5044212;28;20696;-48
2023/11/29 08:37:18;;;;;;;6.00;5.40;;;6.90;56.60;;;;;;5043148;28;20519;-49
2023/11/29 08:39:44;;;;;;;6.00;5.30;;;7.00;56.30;;;;;;5040850;28;20212;-50
2023/11/29 08:42:11;;;;;;;6.23;5.00;;;7.00;55.90;;;;;;5039240;28;20660;-49
2023/11/29 08:44:37;;;;;;;7.73;5.90;;;6.90;55.90;;;;;;5044721;28;20221;-48
2023/11/29 08:47:03;;;;;;;7.23;5.80;;;6.80;56.00;;;;;;5039469;28;20460;-51
2023/11/29 08:49:29;;;;;;;5.60;4.83;;;6.80;56.10;;;;;;5043006;28;20204;-50
2023/11/29 08:51:55;;;;;;;6.30;5.70;;;6.90;56.10;;;;;;5045565;28;20434;-49
2023/11/29 08:54:22;;;;;;;6.17;4.93;;;7.00;56.00;;;;;;5048984;28;20481;-49
2023/11/29 08:56:47;;;;;;;5.80;4.90;;;7.00;55.70;;;;;;5050400;28;20184;-48
2023/11/29 08:59:13;;;;;;;5.30;4.80;;;7.00;55.60;;;;;;5047601;28;20461;-49
2023/11/29 09:01:40;;;;;;;6.60;5.20;;;6.60;55.80;;;;;;5042748;28;20974;-50
2023/11/29 09:04:06;;;;;;;5.30;4.80;;;6.70;56.30;;;;;;5049837;28;20578;-50
2023/11/29 09:06:32;;;;;;;6.23;5.33;;;6.90;56.10;;;;;;5046333;28;20482;-49
2023/11/29 09:08:58;;;;;;;6.30;5.27;;;7.00;55.90;;;;;;5041563;28;20538;-48
2023/11/29 09:11:24;;;;;;;5.70;4.60;;;6.90;55.70;;;;;;5049612;28;20502;-48
2023/11/29 09:13:50;;;;;;;7.60;5.10;;;6.90;55.70;;;;;;5043141;28;20438;-50
2023/11/29 09:16:16;;;;;;;6.63;5.53;;;6.90;55.90;;;;;;5048147;28;20541;-47
2023/11/29 09:18:43;;;;;;;6.87;4.90;;;6.90;55.70;;;;;;5041696;28;20462;-48
2023/11/29 09:21:09;;;;;;;5.33;4.10;;;6.90;55.50;;;;;;5042886;28;20494;-50
2023/11/29 09:23:35;;;;;;;7.70;4.97;;;6.80;55.60;;;;;;5047799;28;20415;-51
2023/11/29 09:26:01;;;;;;;5.80;4.67;;;6.70;55.70;;;;;;5046856;28;20826;-49
2023/11/29 09:28:28;;;;;;;4.30;3.90;;;6.80;55.30;;;;;;5046571;28;20439;-53
2023/11/29 09:30:53;;;;;;;6.83;4.80;;;6.70;55.60;;;;;;5042292;28;20177;-50
2023/11/29 09:33:21;;;;;;;6.43;4.33;;;6.60;55.70;;;;;;5047211;28;20438;-49
2023/11/29 09:35:47;;;;;;;4.90;4.40;;;6.80;55.90;;;;;;5045043;28;20180;-54
2023/11/29 09:38:12;;;;;;;5.00;4.13;;;6.60;56.00;;;;;;5044099;28;20810;-48
2023/11/29 09:40:38;;;;;;;4.30;3.90;;;6.60;56.80;;;;;;5047663;28;20610;-50
2023/11/29 09:43:03;;;;;;;5.40;4.50;;;6.70;56.50;;;;;;5048651;28;20180;-50
2023/11/29 09:45:30;;;;;;;4.13;3.73;;;6.40;56.00;;;;;;5049435;28;20217;-48
2023/11/29 09:47:57;;;;;;;4.10;3.70;;;6.50;56.40;;;;;;5049067;28;20184;-48
2023/11/29 09:50:27;;;;;;;4.73;4.30;;;6.70;56.10;;;;;;5038474;28;20494;-48
2023/11/29 09:52:54;;;;;;;5.07;3.70;;;6.80;55.70;;;;;;5044539;28;20476;-50
2023/11/29 09:55:20;;;;;;;6.10;4.00;;;6.90;55.30;;;;;;5047321;28;20531;-50
2023/11/29 09:57:46;;;;;;;4.30;3.33;;;6.90;55.20;;;;;;5044769;28;20451;-50
2023/11/29 10:00:14;;;;;;;4.30;3.43;;;6.70;54.80;;;;;;5043357;28;20702;-48
2023/11/29 10:02:40;;;;;;;5.50;3.57;;;6.70;55.20;;;;;;5048030;28;20275;-51
2023/11/29 10:05:06;;;;;;;3.87;3.53;;;6.80;54.80;;;;;;5042006;28;20569;-48
2023/11/29 10:07:32;;;;;;;4.50;4.10;;;6.90;54.30;;;;;;5036818;28;21000;-49
2023/11/29 10:10:07;;;;;;;7.57;4.30;;;6.80;54.60;;;;;;5041891;28;20228;-51
2023/11/29 10:12:35;;;;;;;4.80;3.77;;;7.00;55.20;;;;;;5045396;28;20454;-47
2023/11/29 10:15:01;;;;;;;4.03;3.60;;;6.70;54.40;;;;;;5047348;28;20427;-47
2023/11/29 10:17:27;;;;;;;4.73;4.13;;;6.40;55.00;;;;;;5041905;28;20515;-48
2023/11/29 10:19:56;;;;;;;4.30;3.90;;;6.70;55.50;;;;;;5047424;28;20467;-52
2023/11/29 10:22:21;;;;;;;5.60;3.40;;;6.40;55.30;;;;;;5042098;28;20192;-52
2023/11/29 10:24:48;;;;;;;5.33;4.60;;;6.40;56.00;;;;;;5043868;28;20530;-50
2023/11/29 10:27:16;;;;;;;4.30;3.90;;;6.60;55.50;;;;;;5047092;28;20242;-51
2023/11/29 10:29:41;;;;;;;4.03;3.30;;;6.80;55.20;;;;;;5042898;28;20459;-48
2023/11/29 10:32:08;;;;;;;3.60;3.30;;;7.00;54.90;;;;;;5045826;28;20492;-48
2023/11/29 10:34:35;;;;;;;3.47;3.17;;;7.20;54.80;;;;;;5036337;28;20200;-50
2023/11/29 10:37:05;;;;;;;4.00;3.60;;;7.10;54.50;;;;;;5047134;28;20420;-49
2023/11/29 10:39:33;;;;;;;5.90;4.53;;;7.10;54.70;;;;;;5039945;28;20844;-49
2023/11/29 10:42:00;;;;;;;4.20;3.50;;;7.20;54.30;;;;;;5045528;28;20430;-52
2023/11/29 10:44:35;;;;;;;5.80;4.00;;;7.50;54.30;;;;;;5046058;28;20484;-48
2023/11/29 10:47:21;;;;;;;4.10;3.70;;;7.30;54.00;;;;;;5045482;28;20450;-48
2023/11/29 10:49:57;;;;;;;5.00;3.40;;;7.20;54.20;;;;;;5047419;28;20439;-49
2023/11/29 10:52:25;;;;;;;3.53;3.23;;;7.20;54.20;;;;;;5040710;28;20526;-49
2023/11/29 10:54:52;;;;;;;4.70;4.23;;;7.10;54.40;;;;;;5044147;28;20443;-49
2023/11/29 10:57:43;;;;;;;3.30;3.00;;;7.20;55.30;;;;;;5045773;28;20480;-52
2023/11/29 11:00:15;;;;;;;3.93;3.53;;;7.20;55.80;;;;;;5037288;28;20914;-49
2023/11/29 11:02:47;;;;;;;4.27;3.40;;;6.80;56.50;;;;;;5046075;28;20473;-51
2023/11/29 11:05:17;;;;;;;4.37;3.97;;;6.90;56.70;;;;;;5047310;28;20489;-49
2023/11/29 11:07:45;;;;;;;4.40;3.87;;;7.00;56.10;;;;;;5044764;28;20938;-53
2023/11/29 11:10:12;;;;;;;4.27;3.87;;;7.20;55.80;;;;;;5044693;28;20530;-49
2023/11/29 11:12:40;;;;;;;6.00;4.53;;;7.40;55.80;;;;;;5041569;28;20541;-47
2023/11/29 11:15:19;;;;;;;14.13;4.40;;;7.60;55.60;;;;;;5041852;28;20542;-52
2023/11/29 11:18:05;;;;;;;4.60;3.87;;;7.70;55.10;;;;;;5045858;28;20500;-49
2023/11/29 11:20:59;;;;;;;4.00;3.60;;;7.70;54.70;;;;;;5046944;28;20450;-50
2023/11/29 11:23:26;;;;;;;3.93;3.57;;;7.60;54.40;;;;;;5042830;28;20423;-49
2023/11/29 11:25:58;;;;;;;4.23;3.40;;;7.80;54.10;;;;;;5040135;28;20939;-47
2023/11/29 11:28:32;;;;;;;3.83;3.43;;;7.80;53.70;;;;;;5042044;28;20573;-50
2023/11/29 11:31:02;;;;;;;3.70;3.40;;;7.80;53.90;;;;;;5038355;28;20819;-47
2023/11/29 11:34:06;;;;;;;4.03;3.23;;;7.70;53.60;;;;;;5043823;28;20505;-49
2023/11/29 11:36:33;;;;;;;6.20;3.20;;;7.80;53.90;;;;;;5039001;28;20461;-49
2023/11/29 11:38:59;;;;;;;4.07;3.53;;;7.80;53.60;;;;;;5039836;28;20849;-50
2023/11/29 11:41:26;;;;;;;4.47;3.53;;;7.40;54.00;;;;;;5044025;28;20423;-47
2023/11/29 11:43:52;;;;;;;4.23;3.57;;;7.50;54.50;;;;;;5042843;28;20504;-48
2023/11/29 11:46:17;;;;;;;3.70;3.40;;;7.70;54.50;;;;;;5042774;28;20467;-50
2023/11/29 11:48:47;;;;;;;4.20;3.90;;;7.60;54.10;;;;;;5042348;28;20196;-51
2023/11/29 11:51:12;;;;;;;3.30;3.03;;;7.70;54.00;;;;;;5044861;28;20203;-49
2023/11/29 11:53:41;;;;;;;3.30;2.60;;;7.70;54.10;;;;;;5042335;28;20447;-48
2023/11/29 11:56:27;;;;;;;3.40;2.97;;;7.70;53.80;;;;;;5046008;28;20276;-47
2023/11/29 11:58:56;;;;;;;4.40;3.17;;;7.70;53.80;;;;;;5041234;28;20442;-49
2023/11/29 12:01:22;;;;;;;4.97;4.30;;;7.90;53.80;;;;;;5039356;28;20577;-50
2023/11/29 12:03:51;;;;;;;4.77;3.77;;;8.10;53.80;;;;;;5037275;28;21028;-48
2023/11/29 12:06:17;;;;;;;4.70;3.43;;;8.00;53.50;;;;;;5043218;28;20212;-51
2023/11/29 12:08:43;;;;;;;5.83;3.27;;;8.20;53.30;;;;;;5045453;28;20508;-49
2023/11/29 12:11:10;;;;;;;3.70;3.40;;;8.10;52.90;;;;;;5036912;28;20443;-50
2023/11/29 12:13:36;;;;;;;3.60;3.00;;;8.10;53.00;;;;;;5046481;28;20431;-49
2023/11/29 12:16:15;;;;;;;3.30;2.60;;;8.00;52.80;;;;;;5046895;28;20426;-47
2023/11/29 12:18:41;;;;;;;2.93;2.70;;;8.10;53.00;;;;;;5040790;28;20461;-51
2023/11/29 12:21:07;;;;;;;4.47;3.70;;;8.20;53.00;;;;;;5042409;28;20443;-48
2023/11/29 12:23:32;;;;;;;2.43;2.23;;;8.30;53.00;;;;;;5044309;28;20605;-49
2023/11/29 12:25:58;;;;;;;2.87;2.60;;;8.00;52.50;;;;;;5042230;28;20561;-50
2023/11/29 12:28:25;;;;;;;3.33;2.40;;;8.00;52.90;;;;;;5047042;28;20181;-50
2023/11/29 12:30:58;;;;;;;3.80;2.80;;;8.30;53.10;;;;;;5046454;28;20419;-50
2023/11/29 12:33:24;;;;;;;3.47;2.53;;;8.70;52.50;;;;;;5042920;28;20422;-49
2023/11/29 12:35:50;;;;;;;5.43;2.87;;;8.50;52.10;;;;;;5049049;28;20450;-49
2023/11/29 12:38:16;;;;;;;3.00;2.70;;;8.60;52.70;;;;;;5044453;28;20652;-49
2023/11/29 12:40:41;;;;;;;3.40;3.10;;;8.40;51.70;;;;;;5047551;28;20215;-52
2023/11/29 12:43:07;;;;;;;4.00;3.30;;;8.00;51.50;;;;;;5048088;28;20189;-50
2023/11/29 12:45:33;;;;;;;4.07;2.90;;;7.80;52.00;;;;;;5046056;28;20213;-51
2023/11/29 12:48:02;;;;;;;4.17;3.07;;;7.70;52.60;;;;;;5044715;28;20430;-50
2023/11/29 12:50:28;;;;;;;5.17;3.00;;;7.80;52.70;;;;;;5050281;28;20220;-49
2023/11/29 12:52:54;;;;;;;3.30;2.63;;;8.00;53.00;;;;;;5047996;28;20934;-50